Share

Akulivik, Quebec

7:12 PM EDT on April 23, 2014 (GMT -0400)
Puvirnituq (CYPX) Elev 75 ft | 60.05 °N, 77.29 °W | Change Station

Current weather conditions updated 12 minutes ago

Scattered Clouds
Scattered Clouds
19 °F
Feels Like 12 °F
N
6
Wind Variable Wind from ESE
Sunrise 5:29 AM
Sunset 8:54 PM
Moon Waning Crescent

Tomorrow is forecast to be Cooler than today.

Pressure 30.24 in
Visibility 15.0 miles
Clouds Scattered Clouds 20000 ft
Windchill 12 °F
Dew Point 16 °F
Humidity 86%
Rainfall 0.00 in
Snow Depth Not available.
UV 0 out of 16
Pollen Not available.
Air Quality Not available.
Flu Activity Not available.
METAR CYPX 232300Z 11005KT 15SM SCT200 M07/M09 A3023 RMK CI2 SLP240

More Conditions Fewer Conditions

Pressure 30.24 in
Visibility 15.0 miles
Clouds Scattered Clouds 20000 ft
Windchill 12 °F
Dew Point 16 °F
Humidity 86%
Rainfall 0.00 in
Snow Depth Not available.
UV 0 out of 16
Pollen Not available.
Air Quality Not available.
Flu Activity Not available.
METAR CYPX 232300Z 11005KT 15SM SCT200 M07/M09 A3023 RMK CI2 SLP240

More Conditions Fewer Conditions

10-Day Weather Forecast

Almanac

Astronomy

Apr. 23, 2014 Rise Set
Actual Time 5:29 AM EDT 8:54 PM EDT
Civil Twilight 4:38 AM EDT 9:45 PM EDT
Nautical Twilight 3:24 AM EDT 11:01 PM EDT
Astronomical Twilight 1:43 AM EDT 12:38 AM EDT
Moon 3:39 AM EDT 1:25 PM EDT
Length of Visible Light 17h 07m
Length of Day
15h 25m
Tomorrow will be 5m 33s longer.
Waning Crescent, 32% of the Moon is Illuminated
Today
Waning Crescent
Apr 29
New
May 6
First Quarter
May 14
Full
May 21
Last Quarter

Today's Extremes

Country Highs Country Lows

Community

  • Nestled In
    Nestled In
  • Stunning Sunrise
    Stunning Sunrise
  • spring flowers
    spring flowers
  • Earth Day Spectrum Ove' Blue
    Earth Day Spectrum Ove' Blue
  • BARN B&W
    BARN B&W

WunderPhotos

Upload Photos

1,704,454 photos uploaded!

WunderBlogs® & News

Nearby

Snow Depth

Not available.

Coastal Water Temperatures

Place Temperature
No Stations Reporting

Earthquake Activity

City Distance Mag. Time & Date
No recent earthquake activity has been reported nearby.
Minimum magnitude displayed is 2.5.

Nearby Weather Stations

There are no personal weather stations in this area.

What do you think?

We're not finished. Please let us know what you like, what you don't like, and what you are still missing.